sensor_id;sensor_type;location;lat;lon;timestamp;P1;durP1;ratioP1;P2;durP2;ratioP2
58496;SDS011;44284;51.310;16.904;2022-12-29T00:01:58;10.20;;;5.60;;
58496;SDS011;44284;51.310;16.904;2022-12-29T00:04:24;13.98;;;6.53;;
58496;SDS011;44284;51.310;16.904;2022-12-29T00:06:51;10.07;;;4.78;;
58496;SDS011;44284;51.310;16.904;2022-12-29T00:09:17;11.50;;;4.30;;
58496;SDS011;44284;51.310;16.904;2022-12-29T00:11:44;11.95;;;5.00;;
58496;SDS011;44284;51.310;16.904;2022-12-29T00:14:10;10.20;;;5.07;;
58496;SDS011;44284;51.310;16.904;2022-12-29T00:16:55;10.60;;;5.32;;
58496;SDS011;44284;51.310;16.904;2022-12-29T00:19:21;13.35;;;5.05;;
58496;SDS011;44284;51.310;16.904;2022-12-29T00:22:08;7.70;;;4.07;;
58496;SDS011;44284;51.310;16.904;2022-12-29T00:24:52;9.15;;;4.55;;
58496;SDS011;44284;51.310;16.904;2022-12-29T00:27:34;8.00;;;3.97;;
58496;SDS011;44284;51.310;16.904;2022-12-29T00:30:20;7.35;;;4.18;;
58496;SDS011;44284;51.310;16.904;2022-12-29T00:33:12;6.55;;;3.60;;
58496;SDS011;44284;51.310;16.904;2022-12-29T00:38:43;8.70;;;4.07;;
58496;SDS011;44284;51.310;16.904;2022-12-29T00:41:29;7.68;;;3.47;;
58496;SDS011;44284;51.310;16.904;2022-12-29T00:44:14;12.23;;;5.55;;
58496;SDS011;44284;51.310;16.904;2022-12-29T00:46:41;8.88;;;4.20;;
58496;SDS011;44284;51.310;16.904;2022-12-29T00:49:08;7.75;;;3.90;;
58496;SDS011;44284;51.310;16.904;2022-12-29T00:51:54;8.75;;;4.32;;
58496;SDS011;44284;51.310;16.904;2022-12-29T00:54:20;16.08;;;6.57;;
58496;SDS011;44284;51.310;16.904;2022-12-29T00:56:47;11.52;;;5.13;;
58496;SDS011;44284;51.310;16.904;2022-12-29T00:59:13;8.68;;;4.03;;
58496;SDS011;44284;51.310;16.904;2022-12-29T01:01:39;9.27;;;3.85;;
58496;SDS011;44284;51.310;16.904;2022-12-29T01:04:06;7.97;;;3.83;;
58496;SDS011;44284;51.310;16.904;2022-12-29T01:06:33;8.27;;;3.80;;
58496;SDS011;44284;51.310;16.904;2022-12-29T01:08:59;7.00;;;3.78;;
58496;SDS011;44284;51.310;16.904;2022-12-29T01:11:44;10.63;;;4.03;;
58496;SDS011;44284;51.310;16.904;2022-12-29T01:14:10;8.30;;;3.60;;
58496;SDS011;44284;51.310;16.904;2022-12-29T01:16:36;7.65;;;3.65;;
58496;SDS011;44284;51.310;16.904;2022-12-29T01:19:02;8.02;;;3.58;;
58496;SDS011;44284;51.310;16.904;2022-12-29T01:21:28;11.52;;;4.32;;
58496;SDS011;44284;51.310;16.904;2022-12-29T01:23:55;6.85;;;3.28;;
58496;SDS011;44284;51.310;16.904;2022-12-29T01:26:21;8.65;;;3.92;;
58496;SDS011;44284;51.310;16.904;2022-12-29T01:28:47;7.95;;;3.80;;
58496;SDS011;44284;51.310;16.904;2022-12-29T01:31:13;6.72;;;3.58;;
58496;SDS011;44284;51.310;16.904;2022-12-29T01:33:51;8.65;;;3.70;;
58496;SDS011;44284;51.310;16.904;2022-12-29T01:36:17;9.25;;;4.20;;
58496;SDS011;44284;51.310;16.904;2022-12-29T01:38:43;9.10;;;4.20;;
58496;SDS011;44284;51.310;16.904;2022-12-29T01:41:11;7.45;;;4.00;;
58496;SDS011;44284;51.310;16.904;2022-12-29T01:46:18;8.40;;;3.38;;
58496;SDS011;44284;51.310;16.904;2022-12-29T01:48:49;7.88;;;3.88;;
58496;SDS011;44284;51.310;16.904;2022-12-29T01:51:17;6.90;;;3.00;;
58496;SDS011;44284;51.310;16.904;2022-12-29T01:53:43;8.10;;;3.13;;
58496;SDS011;44284;51.310;16.904;2022-12-29T01:56:10;7.68;;;3.35;;
58496;SDS011;44284;51.310;16.904;2022-12-29T01:58:39;6.57;;;2.85;;
58496;SDS011;44284;51.310;16.904;2022-12-29T02:01:07;6.25;;;3.20;;
58496;SDS011;44284;51.310;16.904;2022-12-29T02:03:33;6.57;;;3.05;;
58496;SDS011;44284;51.310;16.904;2022-12-29T02:08:29;7.78;;;3.22;;
58496;SDS011;44284;51.310;16.904;2022-12-29T02:10:56;7.93;;;2.95;;
58496;SDS011;44284;51.310;16.904;2022-12-29T02:13:25;7.85;;;3.15;;
58496;SDS011;44284;51.310;16.904;2022-12-29T02:18:41;9.35;;;3.60;;
58496;SDS011;44284;51.310;16.904;2022-12-29T02:31:49;7.25;;;3.25;;
58496;SDS011;44284;51.310;16.904;2022-12-29T02:36:45;6.20;;;3.00;;
58496;SDS011;44284;51.310;16.904;2022-12-29T02:41:42;6.20;;;3.30;;
58496;SDS011;44284;51.310;16.904;2022-12-29T02:47:09;8.95;;;3.22;;
58496;SDS011;44284;51.310;16.904;2022-12-29T02:49:42;6.85;;;3.28;;
58496;SDS011;44284;51.310;16.904;2022-12-29T02:52:14;5.55;;;2.92;;
58496;SDS011;44284;51.310;16.904;2022-12-29T02:54:41;4.82;;;2.47;;
58496;SDS011;44284;51.310;16.904;2022-12-29T02:59:36;10.63;;;3.33;;
58496;SDS011;44284;51.310;16.904;2022-12-29T03:07:40;5.57;;;2.78;;
58496;SDS011;44284;51.310;16.904;2022-12-29T03:12:49;5.10;;;2.72;;
58496;SDS011;44284;51.310;16.904;2022-12-29T03:18:29;6.15;;;2.72;;
58496;SDS011;44284;51.310;16.904;2022-12-29T03:21:03;5.80;;;2.67;;
58496;SDS011;44284;51.310;16.904;2022-12-29T03:23:31;6.45;;;2.90;;
58496;SDS011;44284;51.310;16.904;2022-12-29T03:25:58;6.43;;;2.95;;
58496;SDS011;44284;51.310;16.904;2022-12-29T03:28:32;6.10;;;2.47;;
58496;SDS011;44284;51.310;16.904;2022-12-29T03:31:00;6.22;;;2.67;;
58496;SDS011;44284;51.310;16.904;2022-12-29T03:33:27;8.18;;;2.75;;
58496;SDS011;44284;51.310;16.904;2022-12-29T03:35:55;7.07;;;2.90;;
58496;SDS011;44284;51.310;16.904;2022-12-29T03:40:51;7.03;;;2.72;;
58496;SDS011;44284;51.310;16.904;2022-12-29T03:43:17;6.97;;;3.20;;
58496;SDS011;44284;51.310;16.904;2022-12-29T03:45:44;6.63;;;3.15;;
58496;SDS011;44284;51.310;16.904;2022-12-29T03:48:10;6.65;;;2.75;;
58496;SDS011;44284;51.310;16.904;2022-12-29T03:50:36;7.05;;;3.00;;
58496;SDS011;44284;51.310;16.904;2022-12-29T03:53:02;6.53;;;2.65;;
58496;SDS011;44284;51.310;16.904;2022-12-29T03:55:28;5.30;;;2.45;;
58496;SDS011;44284;51.310;16.904;2022-12-29T03:57:54;5.65;;;2.65;;
58496;SDS011;44284;51.310;16.904;2022-12-29T04:00:20;7.38;;;2.85;;
58496;SDS011;44284;51.310;16.904;2022-12-29T04:02:46;5.38;;;2.90;;
58496;SDS011;44284;51.310;16.904;2022-12-29T04:05:12;6.07;;;2.63;;
58496;SDS011;44284;51.310;16.904;2022-12-29T04:07:38;5.40;;;2.20;;
58496;SDS011;44284;51.310;16.904;2022-12-29T04:10:04;5.60;;;2.60;;
58496;SDS011;44284;51.310;16.904;2022-12-29T04:12:30;3.90;;;1.85;;
58496;SDS011;44284;51.310;16.904;2022-12-29T04:14:56;6.00;;;2.95;;
58496;SDS011;44284;51.310;16.904;2022-12-29T04:17:22;5.38;;;2.33;;
58496;SDS011;44284;51.310;16.904;2022-12-29T04:19:48;5.65;;;2.50;;
58496;SDS011;44284;51.310;16.904;2022-12-29T04:22:15;7.30;;;3.28;;
58496;SDS011;44284;51.310;16.904;2022-12-29T04:24:41;5.25;;;2.40;;
58496;SDS011;44284;51.310;16.904;2022-12-29T04:27:07;5.20;;;2.40;;
58496;SDS011;44284;51.310;16.904;2022-12-29T04:29:33;6.28;;;2.80;;
58496;SDS011;44284;51.310;16.904;2022-12-29T04:31:59;6.30;;;2.72;;
58496;SDS011;44284;51.310;16.904;2022-12-29T04:34:25;7.43;;;2.70;;
58496;SDS011;44284;51.310;16.904;2022-12-29T04:36:51;6.00;;;2.63;;
58496;SDS011;44284;51.310;16.904;2022-12-29T04:39:17;6.15;;;2.95;;
58496;SDS011;44284;51.310;16.904;2022-12-29T04:41:43;6.40;;;2.83;;
58496;SDS011;44284;51.310;16.904;2022-12-29T04:44:09;5.57;;;2.45;;
58496;SDS011;44284;51.310;16.904;2022-12-29T04:46:35;5.03;;;2.67;;
58496;SDS011;44284;51.310;16.904;2022-12-29T04:49:01;5.72;;;2.25;;
58496;SDS011;44284;51.310;16.904;2022-12-29T04:51:33;4.75;;;2.75;;
58496;SDS011;44284;51.310;16.904;2022-12-29T04:53:59;5.45;;;2.80;;
58496;SDS011;44284;51.310;16.904;2022-12-29T04:56:25;5.47;;;2.50;;
58496;SDS011;44284;51.310;16.904;2022-12-29T04:58:51;5.03;;;2.40;;
58496;SDS011;44284;51.310;16.904;2022-12-29T05:01:17;7.22;;;3.00;;
58496;SDS011;44284;51.310;16.904;2022-12-29T05:03:43;6.80;;;2.65;;
58496;SDS011;44284;51.310;16.904;2022-12-29T05:06:09;6.72;;;2.63;;
58496;SDS011;44284;51.310;16.904;2022-12-29T05:08:35;5.07;;;2.30;;
58496;SDS011;44284;51.310;16.904;2022-12-29T05:11:01;7.40;;;2.67;;
58496;SDS011;44284;51.310;16.904;2022-12-29T05:13:27;5.80;;;3.00;;
58496;SDS011;44284;51.310;16.904;2022-12-29T05:15:54;6.13;;;2.92;;
58496;SDS011;44284;51.310;16.904;2022-12-29T05:18:20;6.40;;;2.63;;
58496;SDS011;44284;51.310;16.904;2022-12-29T05:20:46;4.90;;;2.75;;
58496;SDS011;44284;51.310;16.904;2022-12-29T05:23:12;11.40;;;4.88;;
58496;SDS011;44284;51.310;16.904;2022-12-29T05:25:38;8.35;;;4.47;;
58496;SDS011;44284;51.310;16.904;2022-12-29T05:28:05;6.85;;;2.95;;
58496;SDS011;44284;51.310;16.904;2022-12-29T05:30:31;9.85;;;4.53;;
58496;SDS011;44284;51.310;16.904;2022-12-29T05:32:57;6.97;;;3.47;;
58496;SDS011;44284;51.310;16.904;2022-12-29T05:35:23;7.07;;;2.97;;
58496;SDS011;44284;51.310;16.904;2022-12-29T05:37:49;10.18;;;2.63;;
58496;SDS011;44284;51.310;16.904;2022-12-29T05:40:15;6.38;;;2.80;;
58496;SDS011;44284;51.310;16.904;2022-12-29T05:42:41;9.07;;;3.60;;
58496;SDS011;44284;51.310;16.904;2022-12-29T05:45:08;7.47;;;3.05;;
58496;SDS011;44284;51.310;16.904;2022-12-29T05:47:34;7.63;;;3.40;;
58496;SDS011;44284;51.310;16.904;2022-12-29T05:50:00;7.43;;;3.13;;
58496;SDS011;44284;51.310;16.904;2022-12-29T05:52:26;8.35;;;2.95;;
58496;SDS011;44284;51.310;16.904;2022-12-29T05:54:52;7.93;;;3.50;;
58496;SDS011;44284;51.310;16.904;2022-12-29T05:57:18;7.80;;;2.90;;
58496;SDS011;44284;51.310;16.904;2022-12-29T05:59:44;7.90;;;3.60;;
58496;SDS011;44284;51.310;16.904;2022-12-29T06:02:10;7.88;;;3.63;;
58496;SDS011;44284;51.310;16.904;2022-12-29T06:04:36;6.95;;;3.55;;
58496;SDS011;44284;51.310;16.904;2022-12-29T06:07:02;5.90;;;3.00;;
58496;SDS011;44284;51.310;16.904;2022-12-29T06:09:28;5.47;;;2.33;;
58496;SDS011;44284;51.310;16.904;2022-12-29T06:11:54;6.93;;;3.20;;
58496;SDS011;44284;51.310;16.904;2022-12-29T06:14:20;6.47;;;3.15;;
58496;SDS011;44284;51.310;16.904;2022-12-29T06:16:46;6.90;;;2.92;;
58496;SDS011;44284;51.310;16.904;2022-12-29T06:19:13;8.50;;;3.58;;
58496;SDS011;44284;51.310;16.904;2022-12-29T06:21:39;8.07;;;3.45;;
58496;SDS011;44284;51.310;16.904;2022-12-29T06:24:05;8.55;;;4.82;;
58496;SDS011;44284;51.310;16.904;2022-12-29T06:26:31;9.23;;;4.72;;
58496;SDS011;44284;51.310;16.904;2022-12-29T06:28:57;8.63;;;4.15;;
58496;SDS011;44284;51.310;16.904;2022-12-29T06:31:23;6.78;;;3.22;;
58496;SDS011;44284;51.310;16.904;2022-12-29T06:33:49;5.72;;;2.95;;
58496;SDS011;44284;51.310;16.904;2022-12-29T06:36:15;6.85;;;3.70;;
58496;SDS011;44284;51.310;16.904;2022-12-29T06:38:41;6.97;;;3.25;;
58496;SDS011;44284;51.310;16.904;2022-12-29T06:41:07;7.10;;;3.28;;
58496;SDS011;44284;51.310;16.904;2022-12-29T06:43:33;9.43;;;2.88;;
58496;SDS011;44284;51.310;16.904;2022-12-29T06:46:03;6.55;;;2.85;;
58496;SDS011;44284;51.310;16.904;2022-12-29T06:48:29;6.57;;;2.95;;
58496;SDS011;44284;51.310;16.904;2022-12-29T06:50:55;4.82;;;2.60;;
58496;SDS011;44284;51.310;16.904;2022-12-29T06:53:21;4.85;;;2.47;;
58496;SDS011;44284;51.310;16.904;2022-12-29T06:55:47;8.35;;;4.25;;
58496;SDS011;44284;51.310;16.904;2022-12-29T06:58:13;9.80;;;5.18;;
58496;SDS011;44284;51.310;16.904;2022-12-29T07:00:39;6.15;;;3.03;;
58496;SDS011;44284;51.310;16.904;2022-12-29T07:03:05;18.52;;;9.30;;
58496;SDS011;44284;51.310;16.904;2022-12-29T07:05:31;6.60;;;3.90;;
58496;SDS011;44284;51.310;16.904;2022-12-29T07:07:57;6.80;;;3.55;;
58496;SDS011;44284;51.310;16.904;2022-12-29T07:10:23;8.77;;;4.28;;
58496;SDS011;44284;51.310;16.904;2022-12-29T07:12:49;12.68;;;6.97;;
58496;SDS011;44284;51.310;16.904;2022-12-29T07:15:15;12.40;;;7.35;;
58496;SDS011;44284;51.310;16.904;2022-12-29T07:17:41;10.20;;;6.10;;
58496;SDS011;44284;51.310;16.904;2022-12-29T07:20:08;10.10;;;4.82;;
58496;SDS011;44284;51.310;16.904;2022-12-29T07:22:34;8.85;;;5.32;;
58496;SDS011;44284;51.310;16.904;2022-12-29T07:25:00;9.80;;;3.58;;
58496;SDS011;44284;51.310;16.904;2022-12-29T07:27:27;13.18;;;6.80;;
58496;SDS011;44284;51.310;16.904;2022-12-29T07:29:53;10.40;;;5.13;;
58496;SDS011;44284;51.310;16.904;2022-12-29T07:32:19;9.63;;;4.38;;
58496;SDS011;44284;51.310;16.904;2022-12-29T07:34:45;9.18;;;4.13;;
58496;SDS011;44284;51.310;16.904;2022-12-29T07:37:12;6.47;;;3.53;;
58496;SDS011;44284;51.310;16.904;2022-12-29T07:39:39;8.25;;;3.30;;
58496;SDS011;44284;51.310;16.904;2022-12-29T07:42:05;10.38;;;4.22;;
58496;SDS011;44284;51.310;16.904;2022-12-29T07:44:31;15.50;;;6.78;;
58496;SDS011;44284;51.310;16.904;2022-12-29T07:46:57;9.13;;;4.20;;
58496;SDS011;44284;51.310;16.904;2022-12-29T07:49:23;11.65;;;5.57;;
58496;SDS011;44284;51.310;16.904;2022-12-29T07:51:49;8.20;;;4.57;;
58496;SDS011;44284;51.310;16.904;2022-12-29T07:54:15;12.95;;;5.22;;
58496;SDS011;44284;51.310;16.904;2022-12-29T07:56:44;11.52;;;5.50;;
58496;SDS011;44284;51.310;16.904;2022-12-29T07:59:10;9.43;;;4.63;;
58496;SDS011;44284;51.310;16.904;2022-12-29T08:01:37;18.23;;;7.60;;
58496;SDS011;44284;51.310;16.904;2022-12-29T08:04:03;14.95;;;7.15;;
58496;SDS011;44284;51.310;16.904;2022-12-29T08:06:29;10.85;;;6.40;;
58496;SDS011;44284;51.310;16.904;2022-12-29T08:08:56;8.18;;;3.80;;
58496;SDS011;44284;51.310;16.904;2022-12-29T08:11:22;7.20;;;3.80;;
58496;SDS011;44284;51.310;16.904;2022-12-29T08:13:48;12.68;;;6.47;;
58496;SDS011;44284;51.310;16.904;2022-12-29T08:16:14;9.18;;;4.78;;
58496;SDS011;44284;51.310;16.904;2022-12-29T08:18:40;10.68;;;5.65;;
58496;SDS011;44284;51.310;16.904;2022-12-29T08:21:06;12.68;;;6.25;;
58496;SDS011;44284;51.310;16.904;2022-12-29T08:23:32;15.23;;;7.78;;
58496;SDS011;44284;51.310;16.904;2022-12-29T08:25:59;11.52;;;5.40;;
58496;SDS011;44284;51.310;16.904;2022-12-29T08:28:25;8.77;;;4.40;;
58496;SDS011;44284;51.310;16.904;2022-12-29T08:30:51;18.40;;;7.32;;
58496;SDS011;44284;51.310;16.904;2022-12-29T08:33:17;15.70;;;6.22;;
58496;SDS011;44284;51.310;16.904;2022-12-29T08:35:44;13.45;;;4.90;;
58496;SDS011;44284;51.310;16.904;2022-12-29T08:38:10;20.27;;;9.15;;
58496;SDS011;44284;51.310;16.904;2022-12-29T08:40:36;16.50;;;7.57;;
58496;SDS011;44284;51.310;16.904;2022-12-29T08:43:02;13.57;;;6.03;;
58496;SDS011;44284;51.310;16.904;2022-12-29T08:45:28;17.13;;;6.72;;
58496;SDS011;44284;51.310;16.904;2022-12-29T08:47:54;7.20;;;3.88;;
58496;SDS011;44284;51.310;16.904;2022-12-29T08:50:20;10.23;;;6.13;;
58496;SDS011;44284;51.310;16.904;2022-12-29T08:52:46;40.03;;;15.18;;
58496;SDS011;44284;51.310;16.904;2022-12-29T08:55:12;19.60;;;7.82;;
58496;SDS011;44284;51.310;16.904;2022-12-29T08:57:38;13.60;;;6.32;;
58496;SDS011;44284;51.310;16.904;2022-12-29T09:00:05;13.63;;;6.38;;
58496;SDS011;44284;51.310;16.904;2022-12-29T09:02:31;17.67;;;6.60;;
58496;SDS011;44284;51.310;16.904;2022-12-29T09:04:57;11.73;;;5.13;;
58496;SDS011;44284;51.310;16.904;2022-12-29T09:07:24;7.95;;;3.50;;
58496;SDS011;44284;51.310;16.904;2022-12-29T09:09:50;17.10;;;5.65;;
58496;SDS011;44284;51.310;16.904;2022-12-29T09:12:16;8.63;;;3.80;;
58496;SDS011;44284;51.310;16.904;2022-12-29T09:14:42;18.27;;;6.15;;
58496;SDS011;44284;51.310;16.904;2022-12-29T09:17:09;45.80;;;14.98;;
58496;SDS011;44284;51.310;16.904;2022-12-29T09:19:54;22.80;;;8.43;;
58496;SDS011;44284;51.310;16.904;2022-12-29T09:22:20;32.45;;;11.43;;
58496;SDS011;44284;51.310;16.904;2022-12-29T09:24:46;18.08;;;7.38;;
58496;SDS011;44284;51.310;16.904;2022-12-29T09:27:12;13.05;;;4.93;;
58496;SDS011;44284;51.310;16.904;2022-12-29T09:29:38;11.35;;;4.05;;
58496;SDS011;44284;51.310;16.904;2022-12-29T09:32:05;8.38;;;4.30;;
58496;SDS011;44284;51.310;16.904;2022-12-29T09:34:32;18.42;;;6.88;;
58496;SDS011;44284;51.310;16.904;2022-12-29T09:36:58;17.80;;;7.55;;
58496;SDS011;44284;51.310;16.904;2022-12-29T09:39:24;16.00;;;6.95;;
58496;SDS011;44284;51.310;16.904;2022-12-29T09:44:50;20.63;;;7.82;;
58496;SDS011;44284;51.310;16.904;2022-12-29T09:47:13;10.30;;;4.55;;
58496;SDS011;44284;51.310;16.904;2022-12-29T09:49:42;25.70;;;9.32;;
58496;SDS011;44284;51.310;16.904;2022-12-29T09:52:15;14.57;;;6.97;;
58496;SDS011;44284;51.310;16.904;2022-12-29T09:57:13;14.95;;;6.38;;
58496;SDS011;44284;51.310;16.904;2022-12-29T09:59:41;14.98;;;6.57;;
58496;SDS011;44284;51.310;16.904;2022-12-29T10:02:12;17.08;;;6.30;;
58496;SDS011;44284;51.310;16.904;2022-12-29T10:04:42;11.85;;;5.10;;
58496;SDS011;44284;51.310;16.904;2022-12-29T10:07:24;19.48;;;7.53;;
58496;SDS011;44284;51.310;16.904;2022-12-29T10:09:56;7.10;;;3.50;;
58496;SDS011;44284;51.310;16.904;2022-12-29T10:15:14;6.22;;;3.63;;
58496;SDS011;44284;51.310;16.904;2022-12-29T10:20:32;7.07;;;3.55;;
58496;SDS011;44284;51.310;16.904;2022-12-29T10:25:26;7.60;;;3.78;;
58496;SDS011;44284;51.310;16.904;2022-12-29T10:27:54;8.10;;;3.00;;
58496;SDS011;44284;51.310;16.904;2022-12-29T10:30:22;5.65;;;3.00;;
58496;SDS011;44284;51.310;16.904;2022-12-29T10:32:50;8.88;;;3.70;;
58496;SDS011;44284;51.310;16.904;2022-12-29T10:35:20;6.07;;;3.42;;
58496;SDS011;44284;51.310;16.904;2022-12-29T10:40:33;6.95;;;3.75;;
58496;SDS011;44284;51.310;16.904;2022-12-29T10:43:01;5.55;;;3.00;;
58496;SDS011;44284;51.310;16.904;2022-12-29T10:45:31;6.22;;;3.33;;
58496;SDS011;44284;51.310;16.904;2022-12-29T10:48:03;5.35;;;3.20;;
58496;SDS011;44284;51.310;16.904;2022-12-29T10:50:29;6.15;;;3.28;;
58496;SDS011;44284;51.310;16.904;2022-12-29T10:52:57;6.63;;;3.03;;
58496;SDS011;44284;51.310;16.904;2022-12-29T10:55:25;6.07;;;3.05;;
58496;SDS011;44284;51.310;16.904;2022-12-29T10:57:53;5.80;;;2.95;;
58496;SDS011;44284;51.310;16.904;2022-12-29T11:00:20;6.35;;;3.38;;
58496;SDS011;44284;51.310;16.904;2022-12-29T11:05:33;7.35;;;3.60;;
58496;SDS011;44284;51.310;16.904;2022-12-29T11:08:03;11.80;;;5.07;;
58496;SDS011;44284;51.310;16.904;2022-12-29T11:12:59;8.98;;;4.50;;
58496;SDS011;44284;51.310;16.904;2022-12-29T11:15:26;7.13;;;3.40;;
58496;SDS011;44284;51.310;16.904;2022-12-29T11:17:53;7.38;;;3.20;;
58496;SDS011;44284;51.310;16.904;2022-12-29T11:20:29;6.07;;;3.30;;
58496;SDS011;44284;51.310;16.904;2022-12-29T11:22:55;7.93;;;4.10;;
58496;SDS011;44284;51.310;16.904;2022-12-29T11:25:21;6.10;;;2.97;;
58496;SDS011;44284;51.310;16.904;2022-12-29T11:30:27;8.32;;;3.78;;
58496;SDS011;44284;51.310;16.904;2022-12-29T11:32:54;6.55;;;3.13;;
58496;SDS011;44284;51.310;16.904;2022-12-29T11:35:34;5.38;;;2.88;;
58496;SDS011;44284;51.310;16.904;2022-12-29T11:38:01;7.50;;;3.38;;
58496;SDS011;44284;51.310;16.904;2022-12-29T11:40:27;9.00;;;3.88;;
58496;SDS011;44284;51.310;16.904;2022-12-29T11:42:55;8.48;;;3.83;;
58496;SDS011;44284;51.310;16.904;2022-12-29T11:45:22;7.05;;;3.80;;
58496;SDS011;44284;51.310;16.904;2022-12-29T11:47:50;8.85;;;4.38;;
58496;SDS011;44284;51.310;16.904;2022-12-29T11:50:18;7.25;;;4.15;;
58496;SDS011;44284;51.310;16.904;2022-12-29T11:52:49;9.75;;;4.70;;
58496;SDS011;44284;51.310;16.904;2022-12-29T11:55:23;11.50;;;4.90;;
58496;SDS011;44284;51.310;16.904;2022-12-29T11:57:50;9.03;;;4.43;;
58496;SDS011;44284;51.310;16.904;2022-12-29T12:00:19;7.35;;;4.15;;
58496;SDS011;44284;51.310;16.904;2022-12-29T12:05:16;8.60;;;3.65;;
58496;SDS011;44284;51.310;16.904;2022-12-29T12:07:48;6.22;;;3.33;;
58496;SDS011;44284;51.310;16.904;2022-12-29T12:10:27;10.60;;;4.57;;
58496;SDS011;44284;51.310;16.904;2022-12-29T12:15:41;6.75;;;3.67;;
58496;SDS011;44284;51.310;16.904;2022-12-29T12:20:42;7.10;;;3.75;;
58496;SDS011;44284;51.310;16.904;2022-12-29T12:25:56;6.10;;;3.22;;
58496;SDS011;44284;51.310;16.904;2022-12-29T12:28:40;6.43;;;3.40;;
58496;SDS011;44284;51.310;16.904;2022-12-29T12:31:16;8.02;;;3.90;;
58496;SDS011;44284;51.310;16.904;2022-12-29T12:33:44;7.18;;;3.80;;
58496;SDS011;44284;51.310;16.904;2022-12-29T12:36:22;6.65;;;3.42;;
58496;SDS011;44284;51.310;16.904;2022-12-29T13:04:30;6.50;;;3.22;;
58496;SDS011;44284;51.310;16.904;2022-12-29T13:12:15;8.85;;;4.15;;
58496;SDS011;44284;51.310;16.904;2022-12-29T13:14:49;11.27;;;4.30;;
58496;SDS011;44284;51.310;16.904;2022-12-29T13:19:49;9.55;;;4.72;;
58496;SDS011;44284;51.310;16.904;2022-12-29T13:22:19;8.23;;;4.03;;
58496;SDS011;44284;51.310;16.904;2022-12-29T13:24:50;6.50;;;3.88;;
58496;SDS011;44284;51.310;16.904;2022-12-29T13:30:26;8.30;;;4.13;;
58496;SDS011;44284;51.310;16.904;2022-12-29T13:38:10;8.95;;;5.10;;
58496;SDS011;44284;51.310;16.904;2022-12-29T13:40:38;6.88;;;4.10;;
58496;SDS011;44284;51.310;16.904;2022-12-29T13:43:05;9.13;;;4.43;;
58496;SDS011;44284;51.310;16.904;2022-12-29T13:45:32;7.03;;;4.13;;
58496;SDS011;44284;51.310;16.904;2022-12-29T13:48:08;6.68;;;3.92;;
58496;SDS011;44284;51.310;16.904;2022-12-29T13:50:36;9.05;;;4.85;;
58496;SDS011;44284;51.310;16.904;2022-12-29T13:53:06;8.60;;;4.22;;
58496;SDS011;44284;51.310;16.904;2022-12-29T13:55:38;9.63;;;4.38;;
58496;SDS011;44284;51.310;16.904;2022-12-29T13:58:12;11.18;;;5.68;;
58496;SDS011;44284;51.310;16.904;2022-12-29T14:06:05;9.93;;;5.75;;
58496;SDS011;44284;51.310;16.904;2022-12-29T14:08:37;12.07;;;5.80;;
58496;SDS011;44284;51.310;16.904;2022-12-29T14:11:07;12.30;;;6.63;;
58496;SDS011;44284;51.310;16.904;2022-12-29T14:13:33;17.98;;;8.70;;
58496;SDS011;44284;51.310;16.904;2022-12-29T14:16:02;15.48;;;8.95;;
58496;SDS011;44284;51.310;16.904;2022-12-29T14:18:29;26.08;;;15.13;;
58496;SDS011;44284;51.310;16.904;2022-12-29T14:23:27;46.33;;;25.20;;
58496;SDS011;44284;51.310;16.904;2022-12-29T14:28:34;39.53;;;18.77;;
58496;SDS011;44284;51.310;16.904;2022-12-29T14:31:04;42.47;;;17.08;;
58496;SDS011;44284;51.310;16.904;2022-12-29T14:33:32;34.78;;;14.20;;
58496;SDS011;44284;51.310;16.904;2022-12-29T14:38:46;46.67;;;21.55;;
58496;SDS011;44284;51.310;16.904;2022-12-29T14:41:24;31.63;;;14.50;;
58496;SDS011;44284;51.310;16.904;2022-12-29T14:43:54;29.13;;;14.15;;
58496;SDS011;44284;51.310;16.904;2022-12-29T14:46:21;35.03;;;16.33;;
58496;SDS011;44284;51.310;16.904;2022-12-29T14:48:47;34.25;;;16.33;;
58496;SDS011;44284;51.310;16.904;2022-12-29T14:51:21;37.70;;;16.90;;
58496;SDS011;44284;51.310;16.904;2022-12-29T14:53:52;41.80;;;17.52;;
58496;SDS011;44284;51.310;16.904;2022-12-29T14:56:18;43.47;;;19.63;;
58496;SDS011;44284;51.310;16.904;2022-12-29T14:58:47;35.67;;;15.10;;
58496;SDS011;44284;51.310;16.904;2022-12-29T15:01:23;28.95;;;12.98;;
58496;SDS011;44284;51.310;16.904;2022-12-29T15:03:51;20.55;;;10.38;;
58496;SDS011;44284;51.310;16.904;2022-12-29T15:06:19;31.73;;;14.05;;
58496;SDS011;44284;51.310;16.904;2022-12-29T15:11:17;33.83;;;15.18;;
58496;SDS011;44284;51.310;16.904;2022-12-29T15:13:44;22.05;;;10.30;;
58496;SDS011;44284;51.310;16.904;2022-12-29T15:19:20;27.92;;;12.77;;
58496;SDS011;44284;51.310;16.904;2022-12-29T15:21:46;25.50;;;10.98;;
58496;SDS011;44284;51.310;16.904;2022-12-29T15:24:12;16.92;;;8.90;;
58496;SDS011;44284;51.310;16.904;2022-12-29T15:26:40;30.75;;;14.07;;
58496;SDS011;44284;51.310;16.904;2022-12-29T15:31:52;21.13;;;10.93;;
58496;SDS011;44284;51.310;16.904;2022-12-29T15:34:19;29.70;;;14.85;;
58496;SDS011;44284;51.310;16.904;2022-12-29T15:36:46;23.13;;;12.13;;
58496;SDS011;44284;51.310;16.904;2022-12-29T15:39:19;24.92;;;12.00;;
58496;SDS011;44284;51.310;16.904;2022-12-29T15:42:02;26.77;;;11.90;;
58496;SDS011;44284;51.310;16.904;2022-12-29T15:44:37;22.80;;;11.15;;
58496;SDS011;44284;51.310;16.904;2022-12-29T15:47:04;23.50;;;12.35;;
58496;SDS011;44284;51.310;16.904;2022-12-29T15:49:31;21.02;;;12.38;;
58496;SDS011;44284;51.310;16.904;2022-12-29T15:51:57;21.27;;;11.15;;
58496;SDS011;44284;51.310;16.904;2022-12-29T15:54:24;25.98;;;12.35;;
58496;SDS011;44284;51.310;16.904;2022-12-29T15:56:52;22.95;;;13.02;;
58496;SDS011;44284;51.310;16.904;2022-12-29T15:59:51;33.50;;;16.38;;
58496;SDS011;44284;51.310;16.904;2022-12-29T16:02:10;16.75;;;9.95;;
58496;SDS011;44284;51.310;16.904;2022-12-29T16:04:36;23.95;;;12.43;;
58496;SDS011;44284;51.310;16.904;2022-12-29T16:07:04;39.83;;;18.95;;
58496;SDS011;44284;51.310;16.904;2022-12-29T16:09:41;27.95;;;15.07;;
58496;SDS011;44284;51.310;16.904;2022-12-29T16:12:13;27.27;;;14.75;;
58496;SDS011;44284;51.310;16.904;2022-12-29T16:14:49;24.10;;;13.73;;
58496;SDS011;44284;51.310;16.904;2022-12-29T16:17:16;36.72;;;19.48;;
58496;SDS011;44284;51.310;16.904;2022-12-29T16:19:48;27.10;;;18.45;;
58496;SDS011;44284;51.310;16.904;2022-12-29T16:22:25;22.13;;;11.18;;
58496;SDS011;44284;51.310;16.904;2022-12-29T16:24:54;22.35;;;12.40;;
58496;SDS011;44284;51.310;16.904;2022-12-29T16:27:21;26.50;;;13.85;;
58496;SDS011;44284;51.310;16.904;2022-12-29T16:29:49;28.50;;;15.27;;
58496;SDS011;44284;51.310;16.904;2022-12-29T16:32:26;24.17;;;13.80;;
58496;SDS011;44284;51.310;16.904;2022-12-29T16:35:17;22.08;;;12.43;;
58496;SDS011;44284;51.310;16.904;2022-12-29T16:37:39;23.35;;;13.18;;
58496;SDS011;44284;51.310;16.904;2022-12-29T16:42:47;23.98;;;12.23;;
58496;SDS011;44284;51.310;16.904;2022-12-29T16:47:42;22.08;;;12.15;;
58496;SDS011;44284;51.310;16.904;2022-12-29T16:50:10;23.55;;;12.25;;
58496;SDS011;44284;51.310;16.904;2022-12-29T16:52:37;20.70;;;12.13;;
58496;SDS011;44284;51.310;16.904;2022-12-29T16:55:03;20.50;;;12.27;;
58496;SDS011;44284;51.310;16.904;2022-12-29T16:57:30;21.42;;;12.13;;
58496;SDS011;44284;51.310;16.904;2022-12-29T17:00:03;22.35;;;12.18;;
58496;SDS011;44284;51.310;16.904;2022-12-29T17:02:31;30.10;;;14.10;;
58496;SDS011;44284;51.310;16.904;2022-12-29T17:04:58;22.02;;;11.88;;